Time;durP1;ratioP1;P1;durP2;ratioP2;P2;SDS_P1;SDS_P2;PMS_P1;PMS_P2;Temp;Humidity;BMP_temperature;BMP_pressure;BME280_temperature;BME280_humidity;BME280_pressure;Samples;Min_cycle;Max_cycle;Signal;HPM_P1;HPM_P2
2024/02/22 00:01:12;;;;;;;4.18;2.58;;;11.70;99.90;;;;;;4953700;28;20042;-63
2024/02/22 00:03:39;;;;;;;3.70;2.15;;;11.60;99.90;;;;;;4953463;28;20078;-63
2024/02/22 00:06:06;;;;;;;4.07;2.42;;;11.70;99.90;;;;;;4950706;28;20043;-63
2024/02/22 00:08:33;;;;;;;5.60;2.25;;;11.60;99.90;;;;;;4953722;28;20647;-63
2024/02/22 00:10:59;;;;;;;3.55;2.35;;;11.60;99.90;;;;;;4950310;28;20055;-63
2024/02/22 00:13:26;;;;;;;6.03;2.78;;;11.60;99.90;;;;;;4955697;28;20046;-63
2024/02/22 00:15:55;;;;;;;6.18;2.65;;;11.60;99.90;;;;;;4945915;28;20055;-63
2024/02/22 00:18:22;;;;;;;4.03;2.30;;;11.60;99.90;;;;;;4955214;28;20047;-63
2024/02/22 00:20:49;;;;;;;6.30;2.45;;;11.50;99.90;;;;;;4949754;28;20107;-63
2024/02/22 00:23:16;;;;;;;3.88;2.47;;;11.50;99.90;;;;;;4951097;28;20086;-63
2024/02/22 00:25:43;;;;;;;2.25;2.00;;;11.50;99.90;;;;;;4948806;28;20039;-63
2024/02/22 00:28:09;;;;;;;6.07;2.60;;;11.50;99.90;;;;;;4948068;28;20046;-63
2024/02/22 00:30:36;;;;;;;3.75;2.53;;;11.50;99.90;;;;;;4950584;28;20051;-63
2024/02/22 00:33:03;;;;;;;4.03;2.47;;;11.50;99.90;;;;;;4947240;28;20059;-63
2024/02/22 00:35:30;;;;;;;4.65;2.35;;;11.50;99.90;;;;;;4952945;28;20049;-63
2024/02/22 00:37:57;;;;;;;6.72;2.70;;;11.50;99.90;;;;;;4948580;28;20051;-63
2024/02/22 00:40:24;;;;;;;5.88;2.67;;;11.50;99.90;;;;;;4951151;28;20476;-63
2024/02/22 00:42:50;;;;;;;5.85;2.58;;;11.50;99.90;;;;;;4949640;28;20130;-63
2024/02/22 00:45:17;;;;;;;3.13;2.10;;;11.50;99.90;;;;;;4946997;28;20047;-63
2024/02/22 00:47:44;;;;;;;5.78;2.55;;;11.50;99.90;;;;;;4947447;28;20106;-63
2024/02/22 00:50:11;;;;;;;3.22;1.95;;;11.50;99.90;;;;;;4950504;28;20523;-63
2024/02/22 00:52:38;;;;;;;3.80;1.85;;;11.40;99.90;;;;;;4948092;28;20047;-63
2024/02/22 00:55:05;;;;;;;7.43;2.28;;;11.40;99.90;;;;;;4949662;28;20141;-63
2024/02/22 00:57:32;;;;;;;3.65;2.00;;;11.50;99.90;;;;;;4946882;28;20572;-63
2024/02/22 00:59:59;;;;;;;4.22;1.92;;;11.50;99.90;;;;;;4953708;28;20209;-63
2024/02/22 01:02:26;;;;;;;7.18;2.05;;;11.50;99.90;;;;;;4949441;28;20448;-63
2024/02/22 01:04:53;;;;;;;4.22;1.90;;;11.50;99.90;;;;;;4948480;28;20051;-63
2024/02/22 01:07:23;;;;;;;3.08;2.25;;;11.50;99.90;;;;;;4949327;28;20408;-63
2024/02/22 01:09:50;;;;;;;3.08;1.85;;;11.50;99.90;;;;;;4951666;28;20090;-63
2024/02/22 01:12:17;;;;;;;3.05;1.55;;;11.40;99.90;;;;;;4953039;28;20495;-63
2024/02/22 01:14:43;;;;;;;2.53;1.98;;;11.40;99.90;;;;;;4949671;28;20051;-61
2024/02/22 01:17:10;;;;;;;4.18;1.67;;;11.40;99.90;;;;;;4946648;28;20098;-63
2024/02/22 01:19:37;;;;;;;4.72;1.60;;;11.40;99.90;;;;;;4949186;28;20438;-63
2024/02/22 01:22:04;;;;;;;3.17;1.83;;;11.40;99.90;;;;;;4949058;28;20572;-63
2024/02/22 01:24:32;;;;;;;3.05;1.63;;;11.40;99.90;;;;;;4951122;28;20071;-63
2024/02/22 01:26:58;;;;;;;2.45;1.70;;;11.40;99.90;;;;;;4951987;28;20105;-63
2024/02/22 01:29:26;;;;;;;1.73;1.30;;;11.40;99.90;;;;;;4951470;28;20044;-63
2024/02/22 01:31:53;;;;;;;2.60;1.58;;;11.40;99.90;;;;;;4951260;28;20110;-63
2024/02/22 01:34:19;;;;;;;4.28;1.60;;;11.30;99.90;;;;;;4947055;28;20055;-63
2024/02/22 01:36:47;;;;;;;1.83;1.30;;;11.30;99.90;;;;;;4948832;28;20047;-63
2024/02/22 01:39:14;;;;;;;1.35;1.20;;;11.30;99.90;;;;;;4947691;28;20118;-63
2024/02/22 01:41:41;;;;;;;1.85;1.33;;;11.30;99.90;;;;;;4951629;28;20043;-63
2024/02/22 01:44:08;;;;;;;1.33;1.15;;;11.30;99.90;;;;;;4951860;28;20131;-63
2024/02/22 01:46:35;;;;;;;1.98;1.30;;;11.30;99.90;;;;;;4934033;29;20050;-63
2024/02/22 01:49:02;;;;;;;2.35;1.60;;;11.30;99.90;;;;;;4950385;28;20481;-63
2024/02/22 01:51:29;;;;;;;1.67;1.38;;;11.30;99.90;;;;;;4951907;28;20043;-63
2024/02/22 01:53:57;;;;;;;1.88;1.10;;;11.30;99.90;;;;;;4949245;28;20058;-63
2024/02/22 01:56:24;;;;;;;1.25;1.05;;;11.30;99.90;;;;;;4949822;28;20115;-63
2024/02/22 01:58:51;;;;;;;2.22;1.15;;;11.30;99.90;;;;;;4953943;28;20130;-63
2024/02/22 02:01:22;;;;;;;1.13;1.02;;;11.20;99.90;;;;;;4951086;28;20055;-63
2024/02/22 02:03:54;;;;;;;1.52;1.10;;;11.20;99.90;;;;;;4956710;28;20102;-63
2024/02/22 02:06:21;;;;;;;1.70;1.30;;;11.20;99.90;;;;;;4952348;28;20512;-62
2024/02/22 02:08:48;;;;;;;2.20;1.27;;;11.20;99.90;;;;;;4954905;28;20062;-63
2024/02/22 02:11:14;;;;;;;1.52;1.20;;;11.10;99.90;;;;;;4951636;28;20070;-63
2024/02/22 02:13:41;;;;;;;1.40;1.30;;;11.00;99.90;;;;;;4950522;28;20047;-62
2024/02/22 02:16:08;;;;;;;1.33;1.10;;;11.00;99.90;;;;;;4951107;28;20059;-63
2024/02/22 02:18:35;;;;;;;2.47;1.00;;;10.90;99.90;;;;;;4953483;28;20047;-62
2024/02/22 02:21:25;;;;;;;1.30;1.02;;;10.70;99.90;;;;;;4953112;28;20499;-62
2024/02/22 02:24:00;;;;;;;1.65;1.20;;;10.70;99.90;;;;;;4952100;28;20130;-62
2024/02/22 02:26:27;;;;;;;2.05;0.82;;;10.60;99.90;;;;;;4948857;28;20062;-62
2024/02/22 02:28:54;;;;;;;2.03;1.40;;;10.60;99.90;;;;;;4950837;28;20051;-63
2024/02/22 02:31:21;;;;;;;2.08;1.70;;;10.60;99.90;;;;;;4953069;28;20052;-63
2024/02/22 02:33:48;;;;;;;1.67;1.27;;;10.60;99.90;;;;;;4951856;28;20481;-62
2024/02/22 02:36:15;;;;;;;1.08;0.98;;;10.70;99.90;;;;;;4953355;28;20054;-62
2024/02/22 02:38:41;;;;;;;4.93;1.08;;;10.70;99.90;;;;;;4951189;28;20051;-62
2024/02/22 02:41:08;;;;;;;2.30;1.35;;;10.60;99.90;;;;;;4949921;28;20058;-63
2024/02/22 02:43:35;;;;;;;4.50;1.30;;;10.60;99.90;;;;;;4953696;28;20134;-62
2024/02/22 02:46:02;;;;;;;2.20;1.17;;;10.60;99.90;;;;;;4953104;28;20055;-63
2024/02/22 02:48:28;;;;;;;3.08;1.40;;;10.50;99.90;;;;;;4950561;28;20452;-63
2024/02/22 02:50:55;;;;;;;2.20;1.30;;;10.60;99.90;;;;;;4950657;28;20118;-62
2024/02/22 02:53:22;;;;;;;2.22;1.23;;;10.50;99.90;;;;;;4951774;28;20047;-62
2024/02/22 02:55:49;;;;;;;4.68;1.58;;;10.50;99.90;;;;;;4951822;28;20637;-63
2024/02/22 02:58:16;;;;;;;1.92;1.33;;;10.40;99.90;;;;;;4954966;28;20047;-62
2024/02/22 03:00:42;;;;;;;1.92;1.58;;;10.30;99.90;;;;;;4951015;28;20110;-63
2024/02/22 03:03:09;;;;;;;2.83;1.30;;;10.30;99.90;;;;;;4952456;28;20054;-63
2024/02/22 03:05:39;;;;;;;4.57;1.55;;;10.30;99.90;;;;;;4949481;28;20210;-63
2024/02/22 03:08:06;;;;;;;4.65;1.70;;;10.30;99.90;;;;;;4951334;28;20047;-63
2024/02/22 03:10:34;;;;;;;3.95;1.60;;;10.30;99.90;;;;;;4956472;28;20109;-63
2024/02/22 03:13:07;;;;;;;2.55;1.70;;;10.30;99.90;;;;;;4951188;28;20055;-63
2024/02/22 03:15:38;;;;;;;1.52;1.27;;;10.30;99.90;;;;;;4950637;28;20106;-63
2024/02/22 03:18:06;;;;;;;2.30;1.40;;;10.30;99.90;;;;;;4954062;28;20051;-63
2024/02/22 03:20:33;;;;;;;3.05;1.10;;;10.30;99.90;;;;;;4950351;28;20043;-63
2024/02/22 03:23:00;;;;;;;1.33;1.20;;;10.30;99.90;;;;;;4952867;28;20055;-62
2024/02/22 03:25:30;;;;;;;1.73;1.30;;;10.30;99.90;;;;;;4952242;28;20130;-62
2024/02/22 03:27:58;;;;;;;2.10;1.45;;;10.30;99.90;;;;;;4954124;28;20098;-63
2024/02/22 03:30:26;;;;;;;1.60;1.05;;;10.40;99.90;;;;;;4952406;28;20134;-62
2024/02/22 03:32:53;;;;;;;1.20;1.10;;;10.30;99.90;;;;;;4955274;28;20078;-63
2024/02/22 03:35:22;;;;;;;1.85;1.30;;;10.40;99.90;;;;;;4949735;28;20047;-63
2024/02/22 03:37:50;;;;;;;2.30;1.08;;;10.40;99.90;;;;;;4953262;28;20069;-62
2024/02/22 03:40:17;;;;;;;1.88;0.93;;;10.40;99.90;;;;;;4948688;28;20051;-62
2024/02/22 03:42:44;;;;;;;2.85;1.30;;;10.40;99.90;;;;;;4950475;28;20086;-63
2024/02/22 03:45:11;;;;;;;1.63;1.10;;;10.30;99.90;;;;;;4956696;28;20051;-62
2024/02/22 03:47:38;;;;;;;1.20;0.95;;;10.30;99.90;;;;;;4955669;28;20445;-62
2024/02/22 03:50:05;;;;;;;1.55;0.98;;;10.30;99.90;;;;;;4949058;28;20524;-63
2024/02/22 03:52:32;;;;;;;1.48;1.05;;;10.30;99.90;;;;;;4948458;28;20059;-62
2024/02/22 03:54:59;;;;;;;1.60;1.13;;;10.20;99.90;;;;;;4954633;28;20460;-62
2024/02/22 03:57:26;;;;;;;3.72;1.40;;;10.30;99.90;;;;;;4955001;28;20043;-62
2024/02/22 03:59:52;;;;;;;3.08;1.20;;;10.30;99.90;;;;;;4949109;28;20122;-63
2024/02/22 04:02:20;;;;;;;1.23;1.02;;;10.30;99.90;;;;;;4948668;28;20050;-62
2024/02/22 04:04:50;;;;;;;1.38;1.23;;;10.20;99.90;;;;;;4948632;28;20409;-62
2024/02/22 04:07:17;;;;;;;1.67;1.25;;;10.20;99.90;;;;;;4947690;28;20432;-62
2024/02/22 04:09:44;;;;;;;2.17;1.00;;;10.20;99.90;;;;;;4949333;28;20111;-63
2024/02/22 04:12:11;;;;;;;2.25;1.10;;;10.20;99.90;;;;;;4955167;28;20526;-62
2024/02/22 04:14:38;;;;;;;1.55;1.10;;;10.10;99.90;;;;;;4947529;28;20047;-62
2024/02/22 04:17:05;;;;;;;2.92;1.10;;;10.10;99.90;;;;;;4950467;28;20670;-63
2024/02/22 04:19:32;;;;;;;1.80;1.13;;;10.10;99.90;;;;;;4948464;28;20449;-63
2024/02/22 04:21:59;;;;;;;2.92;1.83;;;10.00;99.90;;;;;;4948114;28;20415;-63
2024/02/22 04:24:25;;;;;;;1.73;1.00;;;10.00;99.90;;;;;;4951697;28;20093;-63
2024/02/22 04:26:52;;;;;;;1.50;0.77;;;10.10;99.90;;;;;;4947938;28;20051;-62
2024/02/22 04:29:19;;;;;;;1.20;0.90;;;10.00;99.90;;;;;;4949304;28;20067;-62
2024/02/22 04:31:47;;;;;;;1.13;0.77;;;10.00;99.90;;;;;;4949406;28;20051;-63
2024/02/22 04:34:14;;;;;;;1.77;0.90;;;9.90;99.90;;;;;;4951064;28;20560;-62
2024/02/22 04:36:41;;;;;;;1.00;0.60;;;9.90;99.90;;;;;;4950045;28;20051;-62
2024/02/22 04:39:11;;;;;;;1.40;0.80;;;9.90;99.90;;;;;;4951413;28;20074;-63
2024/02/22 04:41:38;;;;;;;0.93;0.77;;;9.90;99.90;;;;;;4950825;28;20051;-62
2024/02/22 04:44:05;;;;;;;0.75;0.70;;;9.90;99.90;;;;;;4951532;28;20047;-62
2024/02/22 04:46:33;;;;;;;0.75;0.63;;;9.90;99.90;;;;;;4950218;28;20054;-62
2024/02/22 04:49:04;;;;;;;3.60;0.50;;;9.90;99.90;;;;;;4948573;28;20051;-62
2024/02/22 04:51:32;;;;;;;0.73;0.52;;;9.90;99.90;;;;;;4950017;28;20062;-63
2024/02/22 04:54:00;;;;;;;1.05;0.60;;;9.90;99.90;;;;;;4949636;28;20051;-63
2024/02/22 04:56:28;;;;;;;0.80;0.60;;;9.90;99.90;;;;;;4951814;28;20122;-62
2024/02/22 04:58:56;;;;;;;0.73;0.60;;;9.90;99.90;;;;;;4948672;28;20066;-62
2024/02/22 05:01:28;;;;;;;1.08;0.60;;;9.90;99.90;;;;;;4947714;28;20515;-62
2024/02/22 05:03:55;;;;;;;0.50;0.40;;;9.80;99.90;;;;;;4944400;28;20062;-63
2024/02/22 05:06:22;;;;;;;1.20;0.40;;;9.80;99.90;;;;;;4948427;28;20051;-63
2024/02/22 05:08:49;;;;;;;0.30;0.30;;;9.80;99.90;;;;;;4947317;28;20184;-63
2024/02/22 05:11:15;;;;;;;0.70;0.50;;;9.80;99.90;;;;;;4953046;28;20139;-63
2024/02/22 05:13:42;;;;;;;1.88;0.47;;;9.80;99.90;;;;;;4949556;28;20059;-63
2024/02/22 05:16:09;;;;;;;0.85;0.63;;;9.80;99.90;;;;;;4946980;28;20051;-63
2024/02/22 05:18:37;;;;;;;2.42;0.50;;;9.80;99.90;;;;;;4948641;28;20098;-63
2024/02/22 05:21:05;;;;;;;1.45;0.50;;;9.70;99.90;;;;;;4949631;28;20223;-64
2024/02/22 05:23:32;;;;;;;1.95;0.43;;;9.70;99.90;;;;;;4958796;28;20431;-63
2024/02/22 05:25:59;;;;;;;0.50;0.45;;;9.70;99.90;;;;;;4946699;28;20075;-63
2024/02/22 05:28:26;;;;;;;1.50;0.50;;;9.60;99.90;;;;;;4947322;28;20047;-63
2024/02/22 05:30:54;;;;;;;0.98;0.60;;;9.60;99.90;;;;;;4950168;28;20054;-63
2024/02/22 05:33:21;;;;;;;0.40;0.40;;;9.70;99.90;;;;;;4946078;28;20082;-63
2024/02/22 05:35:48;;;;;;;0.40;0.40;;;9.70;99.90;;;;;;4952263;28;20069;-63
2024/02/22 05:38:14;;;;;;;0.20;0.20;;;9.80;99.90;;;;;;4953300;28;20062;-61
2024/02/22 05:40:42;;;;;;;0.68;0.40;;;9.80;99.90;;;;;;4953289;28;20047;-63
2024/02/22 05:43:08;;;;;;;0.30;0.30;;;9.90;99.90;;;;;;4958925;28;20508;-63
2024/02/22 05:45:44;;;;;;;0.20;0.20;;;9.90;99.90;;;;;;4953453;28;20417;-63
2024/02/22 05:48:11;;;;;;;0.40;0.40;;;10.00;99.90;;;;;;4948770;28;20051;-64
2024/02/22 05:50:38;;;;;;;0.20;0.20;;;10.00;99.90;;;;;;4947452;28;20062;-63
2024/02/22 05:53:06;;;;;;;0.40;0.40;;;10.00;99.90;;;;;;4953566;28;20456;-63
2024/02/22 05:55:32;;;;;;;1.40;0.30;;;10.00;99.90;;;;;;4954190;28;20055;-64
2024/02/22 05:57:59;;;;;;;1.55;0.35;;;10.10;99.90;;;;;;4953746;28;20078;-63
2024/02/22 06:00:26;;;;;;;0.30;0.30;;;10.10;99.90;;;;;;4953847;28;20515;-63
2024/02/22 06:02:53;;;;;;;0.30;0.30;;;10.10;99.90;;;;;;4934918;29;20130;-63
2024/02/22 06:05:20;;;;;;;0.55;0.30;;;10.20;99.90;;;;;;4951530;29;20518;-63
2024/02/22 06:07:47;;;;;;;0.30;0.30;;;10.20;99.90;;;;;;4951000;29;20113;-63
2024/02/22 06:10:14;;;;;;;0.30;0.30;;;10.20;99.90;;;;;;4953100;28;20439;-63
2024/02/22 06:12:42;;;;;;;1.80;0.30;;;10.20;99.90;;;;;;4951977;28;20130;-63
2024/02/22 06:15:10;;;;;;;0.47;0.30;;;10.20;99.90;;;;;;4948293;29;20043;-63
2024/02/22 06:17:36;;;;;;;0.45;0.30;;;10.20;99.90;;;;;;4950043;28;20189;-64
2024/02/22 06:20:05;;;;;;;0.40;0.30;;;10.20;99.90;;;;;;4952507;28;20051;-64
2024/02/22 06:22:33;;;;;;;0.20;0.20;;;10.20;99.90;;;;;;4946744;28;20061;-64
2024/02/22 06:25:00;;;;;;;0.20;0.20;;;10.20;99.90;;;;;;4955611;28;20066;-64
2024/02/22 06:27:28;;;;;;;0.30;0.30;;;10.10;99.90;;;;;;4953970;28;20106;-64
2024/02/22 06:29:55;;;;;;;0.25;0.25;;;10.10;99.90;;;;;;4952750;28;20082;-64
2024/02/22 06:32:25;;;;;;;0.43;0.30;;;10.10;99.90;;;;;;4949829;28;20043;-64
2024/02/22 06:34:52;;;;;;;0.50;0.40;;;10.00;99.90;;;;;;4949638;29;20081;-64
2024/02/22 06:37:19;;;;;;;0.20;0.20;;;10.00;99.90;;;;;;4952047;28;20051;-64
2024/02/22 06:39:46;;;;;;;1.38;0.35;;;10.00;99.90;;;;;;4951360;29;20043;-64
2024/02/22 06:42:13;;;;;;;1.08;0.30;;;10.00;99.90;;;;;;4933269;29;20500;-64
2024/02/22 06:44:45;;;;;;;0.57;0.40;;;10.00;99.90;;;;;;4947488;29;20067;-64
2024/02/22 06:47:12;;;;;;;0.30;0.30;;;9.90;99.90;;;;;;4944519;28;20526;-63
2024/02/22 06:49:39;;;;;;;0.28;0.28;;;9.90;99.90;;;;;;4948324;28;20488;-63
2024/02/22 06:52:07;;;;;;;0.30;0.30;;;9.90;99.90;;;;;;4951959;28;20386;-63
2024/02/22 06:54:35;;;;;;;0.30;0.30;;;9.90;99.90;;;;;;4951362;28;20134;-63
2024/02/22 06:57:05;;;;;;;0.75;0.30;;;9.80;99.90;;;;;;4951029;28;20424;-64
2024/02/22 06:59:32;;;;;;;1.20;0.35;;;9.80;99.90;;;;;;4950470;28;20051;-64
2024/02/22 07:01:59;;;;;;;0.30;0.30;;;9.80;99.90;;;;;;4950421;28;20146;-63
2024/02/22 07:04:26;;;;;;;0.28;0.28;;;9.70;99.90;;;;;;4950869;29;20039;-63
2024/02/22 07:06:53;;;;;;;0.30;0.30;;;9.80;99.90;;;;;;4952242;28;20051;-63
2024/02/22 07:09:21;;;;;;;0.43;0.20;;;9.90;99.90;;;;;;4951997;28;20052;-61
2024/02/22 07:11:48;;;;;;;0.28;0.20;;;9.90;99.90;;;;;;4955790;28;20043;-63
2024/02/22 07:14:16;;;;;;;0.20;0.20;;;9.80;99.90;;;;;;4949756;28;20051;-63
2024/02/22 07:16:44;;;;;;;0.65;0.52;;;9.90;99.90;;;;;;4946037;28;21067;-63
2024/02/22 07:19:11;;;;;;;0.30;0.30;;;9.90;99.90;;;;;;4950547;28;20150;-64
2024/02/22 07:21:38;;;;;;;0.25;0.25;;;10.00;99.90;;;;;;4956915;28;20202;-64
2024/02/22 07:24:05;;;;;;;0.45;0.30;;;10.00;99.90;;;;;;4950671;28;20058;-64
2024/02/22 07:26:32;;;;;;;0.30;0.30;;;10.00;99.90;;;;;;4954448;28;20137;-63
2024/02/22 07:28:59;;;;;;;0.30;0.30;;;10.10;99.90;;;;;;4949321;28;20393;-64
2024/02/22 07:31:26;;;;;;;0.30;0.30;;;10.00;99.90;;;;;;4952326;28;20473;-64
2024/02/22 07:33:53;;;;;;;0.30;0.30;;;10.10;99.90;;;;;;4952602;28;20432;-64
2024/02/22 07:36:21;;;;;;;0.30;0.30;;;10.10;99.90;;;;;;4948531;28;20061;-64
2024/02/22 07:38:47;;;;;;;0.20;0.20;;;10.10;99.90;;;;;;4949462;28;20114;-64
2024/02/22 07:41:17;;;;;;;0.30;0.30;;;10.10;99.90;;;;;;4951856;28;20103;-64
2024/02/22 07:43:45;;;;;;;0.35;0.35;;;10.10;99.90;;;;;;4948299;28;20054;-64
2024/02/22 07:46:14;;;;;;;2.13;0.50;;;10.10;99.90;;;;;;4949844;28;20043;-64
2024/02/22 07:48:41;;;;;;;0.40;0.40;;;10.10;99.90;;;;;;4946703;28;20043;-64
2024/02/22 07:51:09;;;;;;;0.60;0.50;;;10.10;99.90;;;;;;4949168;28;20047;-64
2024/02/22 07:53:37;;;;;;;0.30;0.30;;;10.00;99.90;;;;;;4951208;28;20055;-64
2024/02/22 07:56:05;;;;;;;0.50;0.50;;;10.00;99.90;;;;;;4951418;28;20516;-64
2024/02/22 07:58:44;;;;;;;0.30;0.30;;;10.10;99.90;;;;;;4948768;28;20869;-64
2024/02/22 08:01:11;;;;;;;0.32;0.30;;;10.00;99.90;;;;;;4955241;28;20546;-64
2024/02/22 08:03:38;;;;;;;0.30;0.30;;;10.00;99.90;;;;;;4950542;28;20492;-63
2024/02/22 08:06:05;;;;;;;0.38;0.38;;;10.00;99.90;;;;;;4949499;28;20500;-64
2024/02/22 08:08:32;;;;;;;0.40;0.40;;;10.10;99.90;;;;;;4953447;28;20125;-64
2024/02/22 08:10:58;;;;;;;0.20;0.20;;;10.20;99.90;;;;;;4954566;28;20059;-65
2024/02/22 08:13:25;;;;;;;0.40;0.40;;;10.20;99.90;;;;;;4948328;28;20047;-65
2024/02/22 08:15:52;;;;;;;1.13;0.40;;;10.30;99.90;;;;;;4947516;28;20460;-64
2024/02/22 08:18:19;;;;;;;1.38;0.50;;;10.30;99.90;;;;;;4948152;28;20114;-64
2024/02/22 08:20:46;;;;;;;0.30;0.30;;;10.30;99.90;;;;;;4948771;28;20055;-64
2024/02/22 08:23:14;;;;;;;0.30;0.30;;;10.40;99.90;;;;;;4950102;28;20083;-64
2024/02/22 08:25:41;;;;;;;1.27;0.50;;;10.30;99.90;;;;;;4950800;28;20062;-64
2024/02/22 08:28:11;;;;;;;0.35;0.25;;;10.40;99.90;;;;;;4948291;28;20055;-64
2024/02/22 08:30:39;;;;;;;0.40;0.40;;;10.40;99.90;;;;;;4947213;29;20043;-64
2024/02/22 08:33:06;;;;;;;0.40;0.40;;;10.40;99.90;;;;;;4948715;29;20330;-64
2024/02/22 08:35:33;;;;;;;0.95;0.32;;;10.40;99.90;;;;;;4947826;29;20055;-64
2024/02/22 08:38:00;;;;;;;0.73;0.32;;;10.40;99.90;;;;;;4947465;28;20065;-64
2024/02/22 08:40:27;;;;;;;0.40;0.40;;;10.40;99.90;;;;;;4952283;28;20055;-65
2024/02/22 08:43:06;;;;;;;2.35;0.30;;;10.50;99.90;;;;;;4949643;28;20051;-64
2024/02/22 08:45:33;;;;;;;0.30;0.30;;;10.50;99.90;;;;;;4951771;28;20129;-64
2024/02/22 08:48:00;;;;;;;0.45;0.30;;;10.60;99.90;;;;;;4948690;28;20523;-64
2024/02/22 08:50:26;;;;;;;1.60;0.20;;;10.60;99.90;;;;;;4948049;28;20421;-64
2024/02/22 08:52:53;;;;;;;0.32;0.30;;;10.60;99.90;;;;;;4951150;28;20051;-64
2024/02/22 08:55:20;;;;;;;0.25;0.25;;;10.70;99.90;;;;;;4947633;28;20098;-64
2024/02/22 08:57:47;;;;;;;0.75;0.30;;;10.60;99.90;;;;;;4949813;28;20050;-64
2024/02/22 09:00:19;;;;;;;0.30;0.30;;;10.60;99.90;;;;;;4949503;28;20059;-64
2024/02/22 09:03:09;;;;;;;0.68;0.30;;;10.70;99.90;;;;;;4948984;29;20047;-64
2024/02/22 09:05:36;;;;;;;0.55;0.30;;;10.70;99.90;;;;;;4950128;28;20055;-64
2024/02/22 09:08:03;;;;;;;0.30;0.30;;;10.70;99.90;;;;;;4948804;29;20673;-64
2024/02/22 09:10:31;;;;;;;0.30;0.30;;;10.70;99.90;;;;;;4953045;28;20054;-64
2024/02/22 09:12:58;;;;;;;1.70;0.30;;;10.70;99.90;;;;;;4949137;29;20043;-64
2024/02/22 09:15:24;;;;;;;0.57;0.40;;;10.80;99.90;;;;;;4946793;28;20477;-65
2024/02/22 09:17:51;;;;;;;1.02;0.30;;;10.80;99.90;;;;;;4948416;29;20094;-64
2024/02/22 09:20:18;;;;;;;0.98;0.40;;;10.80;99.90;;;;;;4947704;28;20540;-64
2024/02/22 09:22:46;;;;;;;0.10;0.10;;;10.90;99.90;;;;;;4948826;28;20518;-64
2024/02/22 09:25:16;;;;;;;0.30;0.30;;;11.00;99.90;;;;;;4947602;28;20051;-65
2024/02/22 09:27:42;;;;;;;0.30;0.30;;;11.10;99.90;;;;;;4949682;28;20039;-65
2024/02/22 09:30:09;;;;;;;0.30;0.30;;;11.20;99.90;;;;;;4947631;28;20098;-64
2024/02/22 09:32:36;;;;;;;0.32;0.32;;;11.30;99.90;;;;;;4948053;28;20054;-63
2024/02/22 09:35:03;;;;;;;0.20;0.20;;;11.40;99.90;;;;;;4932737;29;20051;-64
2024/02/22 09:37:31;;;;;;;0.77;0.50;;;11.40;99.90;;;;;;4945186;28;20058;-63
2024/02/22 09:39:58;;;;;;;0.50;0.45;;;11.40;99.90;;;;;;4948175;29;20051;-64
2024/02/22 09:42:27;;;;;;;1.92;0.47;;;11.50;99.90;;;;;;4946155;28;20113;-64
2024/02/22 09:44:55;;;;;;;0.40;0.40;;;11.50;99.90;;;;;;4944638;28;20051;-65
2024/02/22 09:47:23;;;;;;;0.65;0.30;;;11.40;99.90;;;;;;4942895;28;20055;-65
2024/02/22 09:49:51;;;;;;;1.30;0.30;;;11.40;99.90;;;;;;4942854;29;20091;-64
2024/02/22 09:52:19;;;;;;;0.93;0.32;;;11.40;99.90;;;;;;4942745;28;20055;-64
2024/02/22 09:54:48;;;;;;;0.40;0.40;;;11.40;99.90;;;;;;4944413;28;20051;-65
2024/02/22 09:57:15;;;;;;;1.33;0.40;;;11.30;99.90;;;;;;4950252;28;20344;-65
2024/02/22 09:59:51;;;;;;;0.75;0.40;;;11.20;99.90;;;;;;4947466;29;20050;-65
2024/02/22 10:02:19;;;;;;;1.75;0.35;;;11.10;99.90;;;;;;4945891;28;20066;-65
2024/02/22 10:04:54;;;;;;;0.82;0.40;;;11.00;99.90;;;;;;4947725;29;20048;-64
2024/02/22 10:07:25;;;;;;;0.40;0.40;;;11.10;99.90;;;;;;4946549;29;20071;-64
2024/02/22 10:09:53;;;;;;;1.45;0.30;;;11.10;99.90;;;;;;4949150;28;20106;-64
2024/02/22 10:12:32;;;;;;;0.55;0.22;;;11.10;99.90;;;;;;4947503;28;20047;-64
2024/02/22 10:14:59;;;;;;;1.08;0.30;;;11.10;99.90;;;;;;4949172;28;20122;-64
2024/02/22 10:17:29;;;;;;;0.70;0.38;;;11.10;99.90;;;;;;4948946;28;20092;-64
2024/02/22 10:19:58;;;;;;;0.30;0.30;;;11.10;99.90;;;;;;4945611;28;20078;-64
2024/02/22 10:22:28;;;;;;;0.30;0.30;;;11.10;99.90;;;;;;4949035;28;20058;-65
2024/02/22 10:25:10;;;;;;;0.88;0.30;;;11.10;99.90;;;;;;4945731;29;20126;-64
2024/02/22 10:27:38;;;;;;;1.27;0.30;;;11.00;99.90;;;;;;4951901;28;20504;-63
2024/02/22 10:30:12;;;;;;;2.13;0.32;;;11.00;99.90;;;;;;4950984;28;20102;-64
2024/02/22 10:32:40;;;;;;;0.82;0.30;;;11.00;99.90;;;;;;4948347;28;20066;-63
2024/02/22 10:35:08;;;;;;;0.50;0.50;;;11.00;99.90;;;;;;4948286;28;20589;-64
2024/02/22 10:37:36;;;;;;;2.25;0.30;;;10.90;99.90;;;;;;4950144;28;20054;-64
2024/02/22 10:40:09;;;;;;;0.32;0.30;;;10.90;99.90;;;;;;4950207;28;20459;-64
2024/02/22 10:42:38;;;;;;;0.28;0.28;;;10.90;99.90;;;;;;4951539;28;20055;-63
2024/02/22 10:45:06;;;;;;;0.30;0.30;;;10.90;99.90;;;;;;4948858;28;20559;-64
2024/02/22 10:47:36;;;;;;;0.47;0.40;;;11.00;99.90;;;;;;4951749;28;20515;-64
2024/02/22 10:50:05;;;;;;;1.88;0.40;;;11.10;99.90;;;;;;4950044;28;20578;-64
2024/02/22 10:52:39;;;;;;;0.45;0.43;;;11.10;99.90;;;;;;4949866;28;20185;-64
2024/02/22 10:55:15;;;;;;;0.40;0.40;;;11.30;99.90;;;;;;4951461;28;20668;-63
2024/02/22 10:57:49;;;;;;;2.75;1.17;;;11.30;99.90;;;;;;4950439;28;20117;-64
2024/02/22 11:00:16;;;;;;;2.70;1.15;;;11.40;99.90;;;;;;4934443;28;20058;-63
2024/02/22 11:02:44;;;;;;;0.50;0.50;;;11.50;99.90;;;;;;4952636;28;20054;-63
2024/02/22 11:05:13;;;;;;;0.35;0.35;;;11.60;99.90;;;;;;4950217;28;20062;-63
2024/02/22 11:07:50;;;;;;;0.75;0.40;;;11.60;99.90;;;;;;4951882;28;20524;-64
2024/02/22 11:10:19;;;;;;;1.00;0.30;;;11.70;99.90;;;;;;4953988;28;20047;-64
2024/02/22 11:12:47;;;;;;;1.27;0.40;;;11.90;99.90;;;;;;4956259;28;20535;-63
2024/02/22 11:15:15;;;;;;;0.32;0.32;;;12.10;99.90;;;;;;4949134;28;20102;-63
2024/02/22 11:17:58;;;;;;;0.30;0.30;;;12.20;99.90;;;;;;4947334;28;20050;-64
2024/02/22 11:20:35;;;;;;;0.30;0.30;;;12.40;99.90;;;;;;4949597;28;20142;-63
2024/02/22 11:23:15;;;;;;;0.47;0.47;;;12.40;99.90;;;;;;4951306;28;20520;-64
2024/02/22 11:25:43;;;;;;;0.20;0.20;;;12.50;99.90;;;;;;4948275;28;20079;-64
2024/02/22 11:28:10;;;;;;;0.20;0.20;;;12.50;99.90;;;;;;4946448;28;20075;-64
2024/02/22 11:30:37;;;;;;;0.40;0.30;;;12.60;99.90;;;;;;4945170;28;20047;-64
2024/02/22 11:33:07;;;;;;;1.38;0.30;;;12.50;99.90;;;;;;4949713;28;20055;-64
2024/02/22 11:35:34;;;;;;;0.68;0.45;;;12.50;99.90;;;;;;4950767;28;20681;-64
2024/02/22 11:38:05;;;;;;;0.30;0.30;;;12.60;99.90;;;;;;4949499;28;20066;-64
2024/02/22 11:40:35;;;;;;;2.08;0.30;;;12.70;99.90;;;;;;4949327;28;20055;-64
2024/02/22 11:43:03;;;;;;;0.32;0.30;;;12.80;99.90;;;;;;4949872;28;20058;-64
2024/02/22 11:45:31;;;;;;;0.20;0.20;;;12.80;99.90;;;;;;4955589;28;20105;-64
2024/02/22 11:47:58;;;;;;;0.57;0.50;;;12.90;99.90;;;;;;4949535;28;20436;-64
2024/02/22 11:50:28;;;;;;;2.55;0.55;;;12.90;99.90;;;;;;4948231;28;20050;-64
2024/02/22 11:52:55;;;;;;;0.87;0.33;;;12.90;99.90;;;;;;4950889;28;20101;-64
2024/02/22 11:55:23;;;;;;;0.32;0.30;;;12.90;99.90;;;;;;4948925;28;20059;-64
2024/02/22 11:57:49;;;;;;;0.30;0.30;;;12.80;99.90;;;;;;4949153;28;20069;-64
2024/02/22 12:00:16;;;;;;;0.50;0.30;;;12.70;99.90;;;;;;4950008;28;20062;-64
2024/02/22 12:02:43;;;;;;;0.30;0.30;;;12.70;99.90;;;;;;4948098;28;20047;-64
2024/02/22 12:05:11;;;;;;;0.20;0.20;;;12.60;99.90;;;;;;4951122;28;20051;-64
2024/02/22 12:07:39;;;;;;;0.22;0.22;;;12.60;99.90;;;;;;4947138;28;20109;-64
2024/02/22 12:10:06;;;;;;;0.20;0.20;;;12.50;99.90;;;;;;4949708;28;20588;-64
2024/02/22 12:12:33;;;;;;;1.20;0.57;;;12.40;99.90;;;;;;4946878;28;21428;-64
2024/02/22 12:15:01;;;;;;;0.60;0.22;;;12.40;99.90;;;;;;4929985;28;20077;-64
2024/02/22 12:17:31;;;;;;;0.20;0.20;;;12.30;99.90;;;;;;4943697;28;20058;-63
2024/02/22 12:19:59;;;;;;;0.20;0.20;;;12.30;99.90;;;;;;4947533;28;20594;-64
2024/02/22 12:22:30;;;;;;;0.32;0.20;;;12.10;99.90;;;;;;4943889;28;20047;-64
2024/02/22 12:24:58;;;;;;;0.85;0.50;;;12.00;99.90;;;;;;4946648;28;20142;-64
2024/02/22 12:27:26;;;;;;;0.30;0.30;;;11.80;99.90;;;;;;4947659;28;20067;-63
2024/02/22 12:29:54;;;;;;;0.32;0.32;;;11.70;99.90;;;;;;4946468;28;20047;-64
2024/02/22 12:32:21;;;;;;;1.35;0.40;;;11.50;99.90;;;;;;4946944;28;20130;-64
2024/02/22 12:34:52;;;;;;;0.88;0.40;;;11.50;99.90;;;;;;4950287;28;20113;-63
2024/02/22 12:37:19;;;;;;;0.30;0.30;;;11.50;99.90;;;;;;4949179;28;20424;-64
2024/02/22 12:39:47;;;;;;;1.17;0.30;;;11.40;99.90;;;;;;4949018;28;20051;-64
2024/02/22 12:42:15;;;;;;;0.40;0.40;;;11.30;99.90;;;;;;4942647;28;20058;-64
2024/02/22 12:44:41;;;;;;;0.32;0.32;;;11.30;99.90;;;;;;4946237;28;20055;-65
2024/02/22 12:47:12;;;;;;;1.88;0.40;;;11.30;99.90;;;;;;4943259;28;20063;-64
2024/02/22 12:49:39;;;;;;;0.52;0.40;;;11.30;99.90;;;;;;4954285;28;20515;-65
2024/02/22 12:52:07;;;;;;;0.45;0.45;;;11.40;99.90;;;;;;4947493;28;20099;-65